Time;durP1;ratioP1;P1;durP2;ratioP2;P2;SDS_P1;SDS_P2;PMS_P1;PMS_P2;Temp;Humidity;BMP_temperature;BMP_pressure;BME280_temperature;BME280_humidity;BME280_pressure;Samples;Min_cycle;Max_cycle;Signal;HPM_P1;HPM_P2
2021/06/28 00:00:13;;;;;;;11.43;10.32;;;19.40;68.90;;;;;;5027048;28;20037;-77
2021/06/28 00:02:39;;;;;;;11.70;10.60;;;19.30;68.80;;;;;;5026862;28;20065;-78
2021/06/28 00:05:08;;;;;;;11.98;10.80;;;19.30;68.80;;;;;;5027255;28;20493;-79
2021/06/28 00:07:33;;;;;;;12.15;11.05;;;19.20;68.60;;;;;;5026650;28;20033;-78
2021/06/28 00:09:59;;;;;;;12.02;10.55;;;19.30;68.90;;;;;;5026322;28;20029;-79
2021/06/28 00:12:26;;;;;;;12.40;11.18;;;19.20;68.70;;;;;;5026477;28;20857;-79
2021/06/28 00:14:52;;;;;;;11.65;10.63;;;19.20;68.80;;;;;;5025706;28;20399;-79
2021/06/28 00:17:18;;;;;;;11.73;10.68;;;19.20;68.90;;;;;;5026974;28;20396;-79
2021/06/28 00:19:43;;;;;;;11.63;10.57;;;19.20;69.00;;;;;;5040764;28;20213;-79
2021/06/28 00:22:10;;;;;;;11.35;10.25;;;19.20;69.00;;;;;;5045080;28;20037;-77
2021/06/28 00:24:35;;;;;;;11.57;10.48;;;19.10;68.90;;;;;;5041252;28;20374;-78
2021/06/28 00:27:01;;;;;;;12.55;11.25;;;19.10;68.90;;;;;;5041487;28;20120;-78
2021/06/28 00:29:27;;;;;;;11.40;10.35;;;19.10;68.90;;;;;;5038694;28;20025;-78
2021/06/28 00:31:55;;;;;;;11.95;10.95;;;19.10;69.00;;;;;;5045032;28;20114;-77
2021/06/28 00:34:21;;;;;;;11.77;10.68;;;19.10;69.00;;;;;;5044994;28;20033;-77
2021/06/28 00:36:48;;;;;;;12.13;10.93;;;19.10;69.10;;;;;;5046751;28;20060;-77
2021/06/28 00:39:14;;;;;;;11.45;10.52;;;19.00;68.90;;;;;;5046628;28;20028;-78
2021/06/28 00:41:40;;;;;;;12.48;11.07;;;19.10;69.10;;;;;;5046371;28;20484;-76
2021/06/28 00:44:06;;;;;;;11.10;10.15;;;19.00;69.00;;;;;;5046952;28;20033;-79
2021/06/28 00:46:32;;;;;;;10.98;9.90;;;19.00;69.10;;;;;;5046234;28;20056;-78
2021/06/28 00:48:58;;;;;;;11.82;10.70;;;19.00;69.10;;;;;;5045905;28;20071;-80
2021/06/28 00:51:24;;;;;;;11.15;9.35;;;19.00;69.20;;;;;;5046002;28;20025;-78
2021/06/28 00:53:51;;;;;;;11.15;10.05;;;18.90;69.00;;;;;;5046344;28;20060;-78
2021/06/28 00:56:17;;;;;;;10.23;9.23;;;19.00;69.30;;;;;;5044223;28;20507;-76
2021/06/28 00:58:44;;;;;;;11.23;10.13;;;18.90;69.10;;;;;;5046298;28;20029;-79
2021/06/28 01:01:12;;;;;;;10.43;9.63;;;19.00;69.40;;;;;;5045091;28;20353;-79
2021/06/28 01:03:39;;;;;;;11.00;9.93;;;18.90;69.20;;;;;;5046340;28;20036;-78
2021/06/28 01:06:10;;;;;;;12.85;9.77;;;18.90;69.20;;;;;;5045855;28;20033;-78
2021/06/28 01:08:36;;;;;;;10.70;9.70;;;18.80;69.10;;;;;;5046289;28;20025;-78
2021/06/28 01:11:02;;;;;;;10.30;9.30;;;18.90;69.30;;;;;;5046476;28;20044;-78
2021/06/28 01:13:39;;;;;;;10.13;9.23;;;18.80;69.10;;;;;;5045586;28;20116;-78
2021/06/28 01:16:06;;;;;;;10.60;9.63;;;18.80;69.20;;;;;;5045959;28;20025;-78
2021/06/28 01:18:33;;;;;;;10.73;9.63;;;18.80;69.20;;;;;;5045581;28;20503;-78
2021/06/28 01:21:01;;;;;;;9.77;8.98;;;18.80;69.20;;;;;;5044753;28;20037;-77
2021/06/28 01:23:33;;;;;;;10.13;9.13;;;18.80;69.30;;;;;;5046021;28;20068;-79
2021/06/28 01:26:04;;;;;;;9.20;8.38;;;18.70;69.80;;;;;;5045909;28;20029;-79
2021/06/28 01:28:30;;;;;;;9.63;8.73;;;18.70;69.20;;;;;;5046177;28;20075;-79
2021/06/28 01:30:58;;;;;;;9.80;8.73;;;18.70;69.20;;;;;;5057101;28;20530;-79
2021/06/28 01:33:25;;;;;;;9.02;8.15;;;18.60;69.10;;;;;;5044256;28;20152;-79
2021/06/28 01:35:52;;;;;;;9.25;8.35;;;18.60;69.20;;;;;;5062987;28;20406;-78
2021/06/28 01:38:18;;;;;;;7.97;7.22;;;18.60;69.20;;;;;;5047337;28;20094;-79
2021/06/28 01:40:45;;;;;;;9.18;8.30;;;18.60;69.30;;;;;;5049347;28;20481;-79
2021/06/28 01:43:12;;;;;;;8.55;7.82;;;18.60;69.30;;;;;;5051009;28;20044;-79
2021/06/28 01:45:38;;;;;;;9.40;8.50;;;18.50;69.20;;;;;;5049035;28;20126;-78
2021/06/28 01:48:05;;;;;;;13.98;7.95;;;18.50;69.30;;;;;;5052419;28;20491;-79
2021/06/28 01:50:36;;;;;;;8.80;8.02;;;18.50;69.30;;;;;;5054020;28;20059;-78
2021/06/28 01:53:03;;;;;;;8.85;8.05;;;18.40;69.20;;;;;;5069330;28;20522;-79
2021/06/28 01:55:29;;;;;;;8.68;7.78;;;18.40;69.20;;;;;;5052545;28;20493;-79
2021/06/28 01:57:59;;;;;;;8.35;7.65;;;18.40;69.30;;;;;;5053648;28;20499;-79
2021/06/28 02:00:36;;;;;;;8.90;8.10;;;18.40;69.40;;;;;;5053732;28;20094;-77
2021/06/28 02:03:07;;;;;;;8.65;7.72;;;18.40;69.40;;;;;;5039871;28;20036;-79
2021/06/28 02:05:44;;;;;;;8.02;7.28;;;18.30;69.20;;;;;;5053536;28;20033;-77
2021/06/28 02:08:12;;;;;;;8.68;7.65;;;18.30;69.30;;;;;;5053230;28;20113;-77
2021/06/28 02:10:47;;;;;;;7.70;7.00;;;18.30;69.30;;;;;;5035316;28;20176;-78
2021/06/28 02:13:14;;;;;;;8.75;7.95;;;18.30;69.40;;;;;;5052385;28;20032;-77
2021/06/28 02:15:40;;;;;;;8.55;7.75;;;18.20;69.20;;;;;;5053461;28;20060;-77
2021/06/28 02:18:07;;;;;;;8.43;7.72;;;18.20;69.30;;;;;;5053566;28;20110;-78
2021/06/28 02:20:33;;;;;;;7.43;6.72;;;18.20;69.30;;;;;;5052977;28;20029;-78
2021/06/28 02:23:13;;;;;;;8.43;7.72;;;18.20;69.40;;;;;;5051688;28;20108;-78
2021/06/28 02:25:39;;;;;;;8.25;7.53;;;18.10;69.40;;;;;;5053297;28;20037;-79
2021/06/28 02:28:05;;;;;;;7.80;7.10;;;18.10;69.20;;;;;;5052822;28;20033;-77
2021/06/28 02:30:31;;;;;;;8.32;7.53;;;18.10;69.30;;;;;;5053128;28;20029;-77
2021/06/28 02:32:57;;;;;;;8.63;7.82;;;18.10;69.30;;;;;;5053029;28;20041;-79
2021/06/28 02:35:23;;;;;;;7.63;6.93;;;18.10;69.40;;;;;;5051820;28;20098;-79
2021/06/28 02:37:49;;;;;;;8.35;7.65;;;18.00;69.30;;;;;;5051941;28;20104;-77
2021/06/28 02:40:15;;;;;;;7.78;6.97;;;18.00;69.30;;;;;;5051993;28;20040;-77
2021/06/28 02:42:41;;;;;;;7.30;6.70;;;18.00;69.30;;;;;;5053006;28;20037;-78
2021/06/28 02:45:08;;;;;;;8.00;7.30;;;18.00;69.40;;;;;;5053124;28;20051;-77
2021/06/28 02:47:36;;;;;;;7.22;6.63;;;17.90;69.30;;;;;;5035031;28;20435;-77
2021/06/28 02:50:08;;;;;;;15.27;8.13;;;17.90;69.30;;;;;;5052414;28;20628;-77
2021/06/28 02:52:34;;;;;;;8.73;7.95;;;17.90;69.40;;;;;;5053189;28;20021;-78
2021/06/28 02:55:00;;;;;;;8.23;7.38;;;17.90;69.40;;;;;;5052719;28;20033;-77
2021/06/28 02:57:26;;;;;;;7.78;7.13;;;17.90;69.40;;;;;;5052461;28;20419;-78
2021/06/28 02:59:52;;;;;;;8.68;6.90;;;17.90;69.40;;;;;;5052890;28;20033;-78
2021/06/28 03:02:17;;;;;;;9.05;8.15;;;17.80;69.30;;;;;;5052491;28;20029;-78
2021/06/28 03:04:43;;;;;;;8.10;7.40;;;17.90;69.60;;;;;;5052289;28;20681;-78
2021/06/28 03:07:09;;;;;;;8.52;7.68;;;17.80;69.40;;;;;;5052122;28;20025;-78
2021/06/28 03:09:35;;;;;;;8.23;7.53;;;17.80;69.40;;;;;;5052376;28;20108;-77
2021/06/28 03:12:01;;;;;;;8.77;7.13;;;17.80;69.40;;;;;;5052389;28;20025;-76
2021/06/28 03:14:27;;;;;;;7.93;7.13;;;17.80;69.50;;;;;;5052429;28;20029;-77
2021/06/28 03:16:53;;;;;;;7.75;7.05;;;17.70;69.30;;;;;;5050901;28;20371;-76
2021/06/28 03:19:19;;;;;;;8.05;7.35;;;17.70;69.40;;;;;;5051924;28;20365;-76
2021/06/28 03:21:45;;;;;;;8.25;7.55;;;17.70;69.40;;;;;;5051921;28;20029;-77
2021/06/28 03:24:11;;;;;;;10.73;6.97;;;17.70;69.40;;;;;;5051874;28;20029;-76
2021/06/28 03:26:37;;;;;;;7.85;7.15;;;17.70;69.50;;;;;;5050529;28;20480;-77
2021/06/28 03:29:03;;;;;;;8.13;7.32;;;17.60;69.30;;;;;;5051743;28;20025;-76
2021/06/28 03:31:32;;;;;;;12.32;7.80;;;17.60;69.30;;;;;;5051801;28;20029;-76
2021/06/28 03:33:59;;;;;;;6.93;6.32;;;17.60;69.40;;;;;;5052156;28;20115;-76
2021/06/28 03:36:26;;;;;;;7.40;6.80;;;17.60;69.40;;;;;;5051631;28;20128;-77
2021/06/28 03:38:52;;;;;;;6.95;6.32;;;17.60;69.40;;;;;;5052107;28;20082;-77
2021/06/28 03:41:20;;;;;;;8.23;6.85;;;17.60;69.50;;;;;;5051440;28;20142;-77
2021/06/28 03:43:46;;;;;;;7.53;6.93;;;17.60;69.50;;;;;;5052041;28;20072;-76
2021/06/28 03:46:12;;;;;;;8.30;7.50;;;17.50;69.30;;;;;;5051681;28;20078;-76
2021/06/28 03:48:38;;;;;;;6.75;6.22;;;17.50;69.40;;;;;;5051303;28;20033;-77
2021/06/28 03:51:05;;;;;;;7.68;6.97;;;17.50;70.00;;;;;;5050550;28;20057;-77
2021/06/28 03:53:31;;;;;;;7.32;6.43;;;17.50;69.50;;;;;;5067110;28;20086;-78
2021/06/28 03:56:06;;;;;;;7.07;6.38;;;17.50;69.60;;;;;;5043535;28;20026;-77
2021/06/28 03:58:40;;;;;;;7.05;6.45;;;17.50;69.60;;;;;;5037185;28;20056;-77
2021/06/28 04:01:07;;;;;;;6.30;5.80;;;17.40;69.40;;;;;;5031333;28;20473;-76
2021/06/28 04:03:35;;;;;;;6.72;6.07;;;17.40;69.40;;;;;;5029944;28;20033;-77
2021/06/28 04:06:06;;;;;;;7.50;6.75;;;17.40;69.50;;;;;;5032302;28;20041;-77
2021/06/28 04:08:34;;;;;;;6.63;6.07;;;17.40;69.50;;;;;;5046724;28;20477;-76
2021/06/28 04:11:01;;;;;;;7.43;6.82;;;17.40;69.50;;;;;;5031344;28;20128;-76
2021/06/28 04:13:27;;;;;;;6.70;6.10;;;17.40;69.50;;;;;;5029826;28;20093;-76
2021/06/28 04:15:53;;;;;;;7.35;6.07;;;17.30;69.40;;;;;;5034969;28;20060;-76
2021/06/28 04:18:20;;;;;;;6.38;5.80;;;17.40;69.60;;;;;;5049668;28;20188;-76
2021/06/28 04:20:46;;;;;;;7.40;6.03;;;17.30;69.50;;;;;;5051623;28;20384;-76
2021/06/28 04:23:12;;;;;;;6.80;6.20;;;17.30;69.50;;;;;;5050221;28;20542;-77
2021/06/28 04:25:39;;;;;;;6.03;5.53;;;17.30;69.50;;;;;;5049826;28;20036;-75
2021/06/28 04:28:05;;;;;;;7.28;6.40;;;17.30;69.50;;;;;;5050487;28;20091;-75
2021/06/28 04:30:31;;;;;;;6.25;5.65;;;17.30;69.60;;;;;;5050787;28;20037;-75
2021/06/28 04:32:57;;;;;;;5.82;5.32;;;17.30;69.60;;;;;;5049567;28;20044;-77
2021/06/28 04:35:26;;;;;;;6.35;5.80;;;17.30;69.60;;;;;;5046856;28;20382;-77
2021/06/28 04:37:59;;;;;;;7.13;5.70;;;17.30;69.70;;;;;;5043380;28;20036;-78
2021/06/28 04:40:27;;;;;;;5.70;5.10;;;17.20;69.60;;;;;;5051575;28;20293;-78
2021/06/28 04:42:53;;;;;;;6.25;5.75;;;17.20;69.50;;;;;;5050766;28;20145;-77
2021/06/28 04:45:21;;;;;;;6.22;5.63;;;17.20;69.50;;;;;;5051052;28;20040;-77
2021/06/28 04:47:47;;;;;;;6.90;6.20;;;17.20;69.50;;;;;;5045333;28;20420;-77
2021/06/28 04:50:14;;;;;;;6.68;6.03;;;17.20;69.50;;;;;;5039200;28;20080;-77
2021/06/28 04:52:41;;;;;;;6.38;5.68;;;17.20;69.50;;;;;;5036266;28;20033;-78
2021/06/28 04:55:10;;;;;;;5.40;4.90;;;17.20;69.50;;;;;;5035482;28;20052;-77
2021/06/28 04:57:36;;;;;;;7.03;6.43;;;17.20;69.50;;;;;;5031292;28;20045;-77
2021/06/28 05:00:05;;;;;;;5.82;5.28;;;17.20;69.50;;;;;;5044351;28;20099;-77
2021/06/28 05:02:31;;;;;;;5.70;5.20;;;17.20;69.50;;;;;;5046232;28;20309;-77
2021/06/28 05:04:57;;;;;;;5.53;5.03;;;17.20;69.50;;;;;;5040154;28;20408;-78
2021/06/28 05:07:23;;;;;;;5.72;5.22;;;17.20;69.50;;;;;;5046213;28;20037;-78
2021/06/28 05:09:49;;;;;;;5.72;5.03;;;17.20;69.60;;;;;;5040398;28;20586;-79
2021/06/28 05:12:15;;;;;;;5.63;5.13;;;17.20;69.60;;;;;;5038602;28;20029;-80
2021/06/28 05:14:42;;;;;;;5.53;5.03;;;17.20;69.60;;;;;;5048217;28;20052;-76
2021/06/28 05:17:09;;;;;;;5.13;4.63;;;17.20;69.60;;;;;;5045238;28;20033;-78
2021/06/28 05:19:35;;;;;;;5.00;4.63;;;17.20;69.60;;;;;;5058299;28;20527;-78
2021/06/28 05:22:02;;;;;;;4.82;4.43;;;17.20;69.60;;;;;;5049589;28;20476;-77
2021/06/28 05:24:29;;;;;;;5.20;4.70;;;17.20;69.60;;;;;;5050154;28;20068;-76
2021/06/28 05:26:55;;;;;;;4.78;4.38;;;17.20;69.60;;;;;;5048162;28;20061;-78
2021/06/28 05:29:21;;;;;;;5.78;5.28;;;17.20;69.60;;;;;;5060461;28;20060;-78
2021/06/28 05:31:47;;;;;;;4.72;4.32;;;17.20;69.60;;;;;;5049459;28;20033;-78
2021/06/28 05:34:13;;;;;;;5.50;4.97;;;17.20;69.60;;;;;;5049412;28;20071;-80
2021/06/28 05:36:39;;;;;;;4.88;4.32;;;17.20;69.60;;;;;;5065044;28;20036;-78
2021/06/28 05:39:05;;;;;;;5.00;4.60;;;17.20;69.60;;;;;;5064780;28;20435;-78
2021/06/28 05:41:32;;;;;;;4.97;4.50;;;17.20;69.60;;;;;;5049340;28;20067;-77
2021/06/28 05:43:58;;;;;;;5.20;4.80;;;17.20;69.60;;;;;;5048313;28;20445;-79
2021/06/28 05:46:25;;;;;;;4.55;4.15;;;17.30;69.80;;;;;;5049655;28;20419;-81
2021/06/28 05:48:51;;;;;;;4.65;4.25;;;17.30;69.80;;;;;;5049333;28;20036;-78
2021/06/28 05:51:18;;;;;;;4.75;4.18;;;17.30;69.80;;;;;;5049166;28;20467;-77
2021/06/28 05:53:46;;;;;;;4.93;4.53;;;17.30;69.70;;;;;;5049208;28;20036;-78
2021/06/28 05:56:12;;;;;;;5.07;4.57;;;17.30;69.60;;;;;;5049622;28;20441;-78
2021/06/28 05:58:38;;;;;;;4.20;3.80;;;17.30;69.60;;;;;;5064609;28;20444;-78
2021/06/28 06:01:04;;;;;;;4.10;3.80;;;17.40;69.80;;;;;;5049261;28;20033;-78
2021/06/28 06:03:30;;;;;;;4.43;4.13;;;17.40;69.70;;;;;;5048900;28;20067;-78
2021/06/28 06:05:57;;;;;;;4.18;3.42;;;17.40;69.70;;;;;;5048405;28;20036;-78
2021/06/28 06:08:24;;;;;;;4.00;3.45;;;17.40;69.70;;;;;;5040075;28;20427;-74
2021/06/28 06:10:55;;;;;;;3.70;3.40;;;17.40;69.90;;;;;;5047557;28;20041;-77
2021/06/28 06:13:22;;;;;;;4.95;3.28;;;17.40;70.30;;;;;;5048097;28;20035;-76
2021/06/28 06:15:48;;;;;;;5.35;3.85;;;17.50;70.40;;;;;;5046953;28;20029;-77
2021/06/28 06:18:15;;;;;;;3.80;3.50;;;17.50;70.50;;;;;;5047202;28;20064;-77
2021/06/28 06:20:43;;;;;;;3.33;2.95;;;17.50;70.50;;;;;;5044974;28;20032;-77
2021/06/28 06:23:10;;;;;;;3.72;3.42;;;17.50;70.60;;;;;;5047805;28;20032;-77
2021/06/28 06:25:36;;;;;;;3.30;3.00;;;17.50;70.60;;;;;;5035422;28;20033;-77
2021/06/28 06:28:03;;;;;;;3.88;3.50;;;17.50;70.60;;;;;;5035720;28;20087;-77
2021/06/28 06:30:29;;;;;;;3.65;3.17;;;17.50;70.60;;;;;;5038522;28;20040;-77
2021/06/28 06:32:55;;;;;;;5.07;3.38;;;17.60;70.70;;;;;;5032714;28;20542;-76
2021/06/28 06:35:22;;;;;;;3.67;3.33;;;17.60;70.70;;;;;;5046649;28;20480;-77
2021/06/28 06:37:50;;;;;;;3.58;3.28;;;17.60;70.60;;;;;;5029891;28;20029;-77
2021/06/28 06:40:16;;;;;;;6.32;3.35;;;17.70;70.70;;;;;;5046620;28;20064;-78
2021/06/28 06:42:42;;;;;;;3.60;3.30;;;17.70;71.20;;;;;;5048068;28;20496;-79
2021/06/28 06:45:09;;;;;;;2.90;2.60;;;17.70;70.70;;;;;;5046651;28;20037;-77
2021/06/28 06:47:35;;;;;;;5.82;3.40;;;17.70;70.60;;;;;;5047719;28;20036;-81
2021/06/28 06:50:01;;;;;;;3.15;2.90;;;17.70;70.50;;;;;;5048100;28;20031;-79
2021/06/28 06:52:27;;;;;;;2.72;2.53;;;17.70;70.50;;;;;;5048250;28;20507;-78
2021/06/28 06:54:53;;;;;;;3.50;3.10;;;17.80;70.90;;;;;;5048125;28;20553;-78
2021/06/28 06:57:19;;;;;;;3.17;2.88;;;17.80;70.60;;;;;;5047910;28;20562;-78
2021/06/28 06:59:45;;;;;;;3.60;3.30;;;17.70;70.40;;;;;;5048713;28;20420;-78
2021/06/28 07:02:11;;;;;;;3.17;2.88;;;17.80;70.60;;;;;;5045755;28;20033;-78
2021/06/28 07:04:37;;;;;;;3.30;3.00;;;17.80;70.50;;;;;;5048542;28;20045;-79
2021/06/28 07:07:03;;;;;;;3.83;3.00;;;17.70;70.40;;;;;;5048123;28;20489;-78
2021/06/28 07:09:29;;;;;;;3.50;3.20;;;17.70;70.40;;;;;;5030060;28;20033;-80
2021/06/28 07:11:56;;;;;;;2.70;2.50;;;17.70;70.50;;;;;;5026894;28;20055;-79
2021/06/28 07:14:24;;;;;;;4.32;3.25;;;17.70;70.50;;;;;;5028739;28;20040;-80
2021/06/28 07:16:50;;;;;;;3.45;3.15;;;17.70;70.50;;;;;;5027901;28;20061;-80
2021/06/28 07:19:16;;;;;;;3.42;3.13;;;17.70;70.50;;;;;;5027916;28;20034;-80
2021/06/28 07:21:42;;;;;;;3.65;3.05;;;17.70;70.50;;;;;;5027766;28;20033;-79
2021/06/28 07:24:09;;;;;;;3.55;3.25;;;17.80;70.70;;;;;;5027857;28;20056;-79
2021/06/28 07:26:35;;;;;;;5.65;2.92;;;17.80;70.70;;;;;;5026864;28;20025;-79
2021/06/28 07:29:02;;;;;;;3.05;2.85;;;17.80;70.70;;;;;;5028014;28;20033;-80
2021/06/28 07:31:29;;;;;;;3.72;3.42;;;17.90;70.80;;;;;;5009976;28;20025;-80
2021/06/28 07:33:55;;;;;;;3.75;3.45;;;17.90;70.80;;;;;;5026491;28;20029;-79
2021/06/28 07:36:21;;;;;;;4.38;3.05;;;18.00;70.90;;;;;;5028102;28;20034;-79
2021/06/28 07:38:47;;;;;;;3.90;3.50;;;18.10;70.90;;;;;;5040674;28;20388;-79
2021/06/28 07:41:13;;;;;;;3.25;2.95;;;18.10;70.80;;;;;;5054550;28;20036;-79
2021/06/28 07:43:39;;;;;;;3.05;2.80;;;18.30;71.00;;;;;;5055430;28;20068;-79
2021/06/28 07:46:05;;;;;;;4.13;3.38;;;18.30;70.90;;;;;;5052977;28;20112;-78
2021/06/28 07:48:32;;;;;;;3.72;3.42;;;18.40;70.90;;;;;;5052520;28;20500;-79
2021/06/28 07:50:58;;;;;;;3.03;2.83;;;18.50;70.90;;;;;;5058954;28;20029;-79
2021/06/28 07:53:24;;;;;;;3.33;3.05;;;18.60;71.00;;;;;;5061112;28;20841;-78
2021/06/28 07:55:50;;;;;;;3.30;3.00;;;18.60;70.80;;;;;;5060951;28;20043;-79
2021/06/28 07:58:17;;;;;;;3.58;3.05;;;18.70;70.90;;;;;;5054943;28;20128;-80
2021/06/28 08:00:43;;;;;;;3.42;3.13;;;18.70;70.80;;;;;;5049800;28;20072;-78
2021/06/28 08:03:09;;;;;;;3.10;2.83;;;18.70;70.60;;;;;;5027562;28;20057;-78
2021/06/28 08:05:37;;;;;;;3.65;3.35;;;18.80;70.70;;;;;;5047941;28;20114;-78
2021/06/28 08:08:04;;;;;;;3.67;3.38;;;18.80;70.70;;;;;;5048563;28;20067;-80
2021/06/28 08:10:31;;;;;;;3.22;2.92;;;18.80;70.70;;;;;;5046938;28;20049;-79
2021/06/28 08:12:57;;;;;;;3.83;3.50;;;18.80;70.70;;;;;;5046007;28;20056;-78
2021/06/28 08:15:23;;;;;;;3.20;2.90;;;18.80;70.70;;;;;;5046006;28;20043;-79
2021/06/28 08:17:51;;;;;;;3.67;3.38;;;18.80;70.80;;;;;;5044116;28;20105;-79
2021/06/28 08:20:20;;;;;;;2.95;2.67;;;18.80;70.80;;;;;;5044379;28;20480;-78
2021/06/28 08:22:47;;;;;;;3.53;3.22;;;18.80;70.70;;;;;;5036086;28;20033;-79
2021/06/28 08:25:15;;;;;;;3.38;3.08;;;18.80;70.70;;;;;;5045384;28;20067;-79
2021/06/28 08:27:42;;;;;;;3.50;3.17;;;18.90;70.90;;;;;;5062085;28;20052;-80
2021/06/28 08:30:09;;;;;;;4.63;3.40;;;18.90;70.90;;;;;;5046864;28;20358;-80
2021/06/28 08:32:36;;;;;;;3.58;3.28;;;19.00;71.00;;;;;;5045638;28;20076;-82
2021/06/28 08:35:04;;;;;;;3.95;3.33;;;19.00;70.90;;;;;;5045552;28;20082;-78
2021/06/28 08:37:31;;;;;;;2.88;2.63;;;19.10;71.00;;;;;;5046089;28;20067;-79
2021/06/28 08:39:57;;;;;;;3.28;3.00;;;19.20;71.10;;;;;;5045620;28;20033;-78
2021/06/28 08:42:23;;;;;;;3.55;3.03;;;19.30;71.20;;;;;;5046621;28;20069;-79
2021/06/28 08:44:49;;;;;;;2.83;2.60;;;19.50;71.40;;;;;;5047803;28;20041;-77
2021/06/28 08:47:17;;;;;;;3.10;2.90;;;19.60;71.40;;;;;;5046892;28;20067;-79
2021/06/28 08:49:43;;;;;;;3.05;2.85;;;19.80;71.50;;;;;;5050596;28;20063;-79
2021/06/28 08:52:09;;;;;;;3.30;3.00;;;19.90;71.30;;;;;;5050924;28;20029;-80
2021/06/28 08:54:36;;;;;;;2.70;2.50;;;20.00;71.30;;;;;;5050962;28;20036;-78
2021/06/28 08:57:02;;;;;;;3.25;2.92;;;20.10;71.40;;;;;;5033080;28;20033;-80
2021/06/28 08:59:28;;;;;;;3.30;2.85;;;20.20;71.40;;;;;;5033206;28;20068;-77
2021/06/28 09:01:54;;;;;;;2.88;2.67;;;20.30;71.40;;;;;;5030657;28;20057;-77
2021/06/28 09:04:21;;;;;;;2.95;2.65;;;20.40;71.40;;;;;;5029203;28;20255;-78
2021/06/28 09:06:47;;;;;;;3.53;2.88;;;20.50;71.40;;;;;;5028384;28;20049;-78
2021/06/28 09:09:15;;;;;;;2.75;2.55;;;20.60;71.50;;;;;;5027821;28;20072;-77
2021/06/28 09:11:50;;;;;;;3.42;2.90;;;20.70;71.60;;;;;;5028865;28;20032;-78
2021/06/28 09:14:18;;;;;;;3.10;2.90;;;20.80;71.60;;;;;;5045540;28;20033;-77
2021/06/28 09:16:45;;;;;;;3.30;2.78;;;20.80;71.40;;;;;;5046999;28;20124;-77
2021/06/28 09:19:20;;;;;;;2.67;2.47;;;20.90;71.40;;;;;;5049833;28;20079;-77
2021/06/28 09:21:55;;;;;;;3.40;3.10;;;21.00;71.50;;;;;;5048865;28;20032;-76
2021/06/28 09:24:31;;;;;;;3.17;2.88;;;21.00;71.40;;;;;;5048352;28;20492;-77
2021/06/28 09:27:18;;;;;;;3.05;2.75;;;21.10;71.40;;;;;;5049506;28;20044;-77
2021/06/28 09:29:49;;;;;;;3.13;2.83;;;21.00;71.10;;;;;;5049381;28;20029;-76
2021/06/28 09:32:17;;;;;;;3.38;3.08;;;21.10;71.20;;;;;;5049185;28;20041;-77
2021/06/28 09:34:46;;;;;;;2.65;2.45;;;21.10;71.20;;;;;;5047983;28;20040;-76
2021/06/28 09:37:25;;;;;;;2.95;2.63;;;21.00;71.00;;;;;;5049186;28;20029;-77
2021/06/28 09:39:54;;;;;;;2.70;2.50;;;21.00;71.00;;;;;;5049070;28;20032;-76
2021/06/28 09:42:23;;;;;;;2.78;2.58;;;20.90;70.80;;;;;;5049456;28;20029;-77
2021/06/28 09:44:52;;;;;;;3.17;2.60;;;20.90;70.80;;;;;;5049396;28;20071;-77
2021/06/28 09:47:20;;;;;;;2.58;2.38;;;20.90;70.80;;;;;;5048310;28;20445;-77
2021/06/28 09:50:05;;;;;;;2.97;2.70;;;20.90;70.80;;;;;;5048916;28;20727;-78
2021/06/28 09:52:39;;;;;;;3.15;2.88;;;20.80;70.70;;;;;;5047823;28;20044;-79
2021/06/28 09:55:18;;;;;;;2.72;2.53;;;20.80;70.70;;;;;;5047550;28;20036;-79
2021/06/28 09:58:11;;;;;;;2.70;2.50;;;20.80;70.70;;;;;;5049099;28;20119;-74
2021/06/28 10:00:43;;;;;;;3.27;2.80;;;20.70;70.60;;;;;;5046392;28;20105;-77
2021/06/28 10:03:31;;;;;;;3.20;2.90;;;20.60;70.50;;;;;;5046977;28;20025;-77
2021/06/28 10:06:05;;;;;;;2.97;2.70;;;20.60;70.50;;;;;;5042224;28;20045;-77
2021/06/28 10:08:33;;;;;;;3.08;2.80;;;20.60;70.50;;;;;;5047602;28;20025;-77
2021/06/28 10:11:17;;;;;;;2.92;2.63;;;20.60;70.40;;;;;;5064508;28;20039;-77
2021/06/28 10:13:50;;;;;;;2.90;2.70;;;20.70;70.60;;;;;;5035460;28;20075;-77
2021/06/28 10:16:19;;;;;;;3.45;2.97;;;20.70;70.50;;;;;;5028808;28;20052;-77
2021/06/28 10:18:46;;;;;;;3.22;2.97;;;20.70;70.40;;;;;;5028687;28;20026;-78
2021/06/28 10:21:12;;;;;;;3.10;2.80;;;20.70;70.30;;;;;;5028857;28;20038;-76
2021/06/28 10:23:39;;;;;;;3.47;3.17;;;20.80;70.50;;;;;;5027555;28;20068;-77
2021/06/28 10:26:06;;;;;;;3.50;3.20;;;20.80;70.40;;;;;;5027555;28;20037;-77
2021/06/28 10:28:37;;;;;;;2.90;2.70;;;20.80;70.40;;;;;;5011552;28;20026;-78
2021/06/28 10:31:04;;;;;;;5.90;3.15;;;20.80;70.30;;;;;;5027525;28;20040;-78
2021/06/28 10:33:33;;;;;;;4.07;3.75;;;20.90;70.40;;;;;;5039218;28;20049;-77
2021/06/28 10:36:04;;;;;;;3.15;2.90;;;20.90;70.40;;;;;;5048821;28;20040;-79
2021/06/28 10:38:47;;;;;;;4.90;3.22;;;20.90;70.30;;;;;;5048688;28;20056;-78
2021/06/28 10:41:13;;;;;;;3.50;2.78;;;21.00;70.50;;;;;;5048662;28;20033;-78
2021/06/28 10:43:40;;;;;;;2.88;2.67;;;21.00;70.40;;;;;;5048427;28;20044;-78
2021/06/28 10:46:08;;;;;;;3.50;3.20;;;21.00;70.30;;;;;;5046878;28;20063;-79
2021/06/28 10:48:47;;;;;;;3.95;2.67;;;21.00;70.20;;;;;;5048683;28;20694;-78
2021/06/28 10:51:14;;;;;;;3.50;3.20;;;21.00;70.20;;;;;;5047222;28;20039;-77
2021/06/28 10:53:40;;;;;;;3.80;3.10;;;21.00;70.20;;;;;;5047379;28;20029;-77
2021/06/28 10:56:31;;;;;;;3.28;2.97;;;20.90;70.10;;;;;;5046863;28;20526;-77
2021/06/28 10:58:58;;;;;;;3.17;2.95;;;20.90;70.10;;;;;;5049131;28;20571;-79
2021/06/28 11:02:03;;;;;;;8.93;3.60;;;20.90;70.10;;;;;;5048127;28;20025;-77
2021/06/28 11:04:41;;;;;;;4.32;3.15;;;21.00;70.30;;;;;;5047813;28;20384;-77
2021/06/28 11:07:12;;;;;;;3.65;3.35;;;21.00;70.20;;;;;;5048708;28;20041;-77
2021/06/28 11:09:42;;;;;;;3.47;3.17;;;21.10;70.30;;;;;;5046198;28;20029;-78
2021/06/28 11:12:11;;;;;;;3.30;3.00;;;21.10;70.20;;;;;;5047380;28;20055;-79
2021/06/28 11:14:39;;;;;;;3.70;3.40;;;21.10;70.20;;;;;;5046349;28;20033;-78
2021/06/28 11:17:08;;;;;;;3.50;3.20;;;21.10;70.10;;;;;;5047876;28;20040;-78
2021/06/28 11:22:35;;;;;;;7.07;3.97;;;21.20;70.20;;;;;;5045989;28;20021;-78
2021/06/28 11:25:07;;;;;;;3.80;3.50;;;21.30;70.30;;;;;;5045776;28;20492;-78
2021/06/28 11:27:38;;;;;;;4.50;4.10;;;21.30;70.20;;;;;;5044627;28;20028;-78
2021/06/28 11:30:15;;;;;;;3.88;3.53;;;21.50;70.40;;;;;;5045993;28;20110;-77
2021/06/28 11:33:09;;;;;;;4.93;3.75;;;21.60;70.40;;;;;;5046894;28;20416;-80
2021/06/28 11:35:50;;;;;;;5.68;3.75;;;21.60;70.30;;;;;;5046153;28;20128;-80
2021/06/28 11:38:24;;;;;;;4.78;3.20;;;21.70;70.30;;;;;;5040872;28;20041;-80
2021/06/28 11:41:14;;;;;;;4.30;3.90;;;21.80;70.30;;;;;;5027231;28;20030;-79
2021/06/28 11:44:03;;;;;;;4.43;3.85;;;21.90;70.40;;;;;;5027583;28;20037;-79
2021/06/28 11:46:29;;;;;;;6.57;3.88;;;22.00;70.40;;;;;;5029570;28;20156;-79
2021/06/28 11:48:58;;;;;;;3.85;3.38;;;22.10;70.40;;;;;;5035604;28;20033;-79
2021/06/28 11:51:27;;;;;;;4.40;3.83;;;22.10;70.40;;;;;;5035354;28;20026;-79
2021/06/28 11:53:54;;;;;;;4.47;4.05;;;22.30;70.60;;;;;;5030424;28;20029;-79
2021/06/28 11:56:26;;;;;;;4.55;3.70;;;22.30;70.50;;;;;;5029080;28;20026;-79
2021/06/28 11:59:04;;;;;;;5.20;3.95;;;22.40;70.60;;;;;;5040046;28;20065;-79
2021/06/28 12:01:37;;;;;;;5.07;3.75;;;22.50;70.70;;;;;;5052307;28;20033;-79
2021/06/28 12:04:05;;;;;;;3.90;3.53;;;22.60;70.70;;;;;;5036191;28;20084;-78
2021/06/28 12:06:33;;;;;;;4.78;3.92;;;22.70;70.70;;;;;;5028615;28;20116;-78
2021/06/28 12:09:11;;;;;;;4.68;3.53;;;22.80;70.80;;;;;;5027529;28;20025;-79
2021/06/28 12:11:47;;;;;;;4.43;3.75;;;22.80;70.70;;;;;;5026114;28;20040;-78
2021/06/28 12:14:26;;;;;;;5.57;3.50;;;22.80;70.70;;;;;;5027405;28;20034;-78
2021/06/28 12:16:52;;;;;;;6.07;3.58;;;22.90;70.80;;;;;;5026834;28;20033;-79
2021/06/28 12:19:19;;;;;;;3.88;3.47;;;22.90;70.70;;;;;;5027287;28;20029;-79
2021/06/28 12:21:45;;;;;;;5.30;4.43;;;22.90;70.70;;;;;;5025310;28;20057;-78
2021/06/28 12:24:14;;;;;;;4.80;3.90;;;23.00;70.80;;;;;;5033487;28;20045;-78
2021/06/28 12:26:58;;;;;;;4.20;3.63;;;23.00;70.80;;;;;;5033265;28;20033;-79
2021/06/28 12:29:38;;;;;;;4.40;3.97;;;23.00;70.70;;;;;;5042245;28;20041;-79
2021/06/28 12:32:12;;;;;;;3.90;3.50;;;23.10;70.90;;;;;;5046476;28;20473;-77
2021/06/28 12:34:38;;;;;;;;;;;23.10;70.80;;;;;;5046695;28;20399;-77
2021/06/28 12:37:05;;;;;;;3.83;3.53;;;23.10;70.70;;;;;;5046464;28;20076;-78
2021/06/28 12:39:32;;;;;;;4.43;3.53;;;23.20;70.70;;;;;;5046734;28;20041;-77
2021/06/28 12:42:16;;;;;;;3.67;3.38;;;23.20;70.70;;;;;;5045662;28;20029;-81
2021/06/28 12:44:43;;;;;;;5.50;3.90;;;23.20;70.60;;;;;;5046378;28;20420;-82
2021/06/28 12:47:18;;;;;;;4.50;4.10;;;23.30;70.70;;;;;;5045593;28;20086;-83
2021/06/28 12:49:45;;;;;;;5.30;3.83;;;23.30;70.60;;;;;;5044279;28;20544;-84
2021/06/28 12:52:29;;;;;;;4.65;4.25;;;23.30;70.50;;;;;;5025810;28;20397;-86
2021/06/28 12:55:08;;;;;;;4.13;3.72;;;23.30;70.50;;;;;;5026905;28;20025;-85